SWR6HZ EGLL-LSZH
Flight info
| Callsign | SWR6HZ |
|---|---|
| Flight time | N/A |
| Altitude | 29000 |
| Route | DET L6 DVR UL9 KONAN DCT KOK DCT SISGA DCT RITAX DCT KRH M150 LAMGO/N0432F270 T721 SUL/N0419F250 T721 RILAX |
| Aircraft | A321/M-SDE3FGHIRWY/LB1 |
Departure
| Time | 2026-04-30 14:08 |
|---|---|
| Airport | London Heathrow Airport (EGLL) |
Arrival
| Time | N/A |
|---|---|
| Airport | Zürich Airport (LSZH) |
| Time | Latitude | Longitude | Altitude | Speed | Heading |
|---|---|---|---|---|---|
| 2026-04-30 13:28 | 51.46825 | -0.45112 | 87 ft | 0 kts | 360° |
| 2026-04-30 13:52 | 51.46817 | -0.45112 | 88 ft | 4 kts | 358° |
| 2026-04-30 13:53 | 51.46790 | -0.45107 | 86 ft | 4 kts | 346° |
| 2026-04-30 13:53 | 51.46765 | -0.45092 | 91 ft | 4 kts | 323° |
| 2026-04-30 13:53 | 51.46751 | -0.45063 | 90 ft | 3 kts | 271° |
| 2026-04-30 13:53 | 51.46751 | -0.45053 | 90 ft | 0 kts | 269° |
| 2026-04-30 13:58 | 51.46751 | -0.45120 | 86 ft | 11 kts | 269° |
| 2026-04-30 13:59 | 51.46750 | -0.45239 | 86 ft | 10 kts | 269° |
| 2026-04-30 13:59 | 51.46750 | -0.45347 | 86 ft | 9 kts | 269° |
| 2026-04-30 13:59 | 51.46750 | -0.45449 | 86 ft | 10 kts | 270° |
| 2026-04-30 13:59 | 51.46749 | -0.45554 | 86 ft | 9 kts | 270° |
| 2026-04-30 14:00 | 51.46749 | -0.45652 | 86 ft | 8 kts | 270° |
| 2026-04-30 14:00 | 51.46748 | -0.45907 | 86 ft | 14 kts | 270° |
| 2026-04-30 14:00 | 51.46748 | -0.46008 | 86 ft | 13 kts | 270° |
| 2026-04-30 14:01 | 51.46747 | -0.46170 | 90 ft | 15 kts | 270° |
| 2026-04-30 14:01 | 51.46747 | -0.46332 | 90 ft | 14 kts | 270° |
| 2026-04-30 14:01 | 51.46749 | -0.46490 | 86 ft | 16 kts | 270° |
| 2026-04-30 14:01 | 51.46748 | -0.46666 | 86 ft | 15 kts | 270° |
| 2026-04-30 14:02 | 51.46747 | -0.46823 | 86 ft | 13 kts | 270° |
| 2026-04-30 14:02 | 51.46747 | -0.46978 | 90 ft | 15 kts | 270° |
| 2026-04-30 14:02 | 51.46746 | -0.47136 | 88 ft | 15 kts | 269° |
| 2026-04-30 14:02 | 51.46746 | -0.47293 | 86 ft | 13 kts | 269° |
| 2026-04-30 14:03 | 51.46745 | -0.47462 | 86 ft | 16 kts | 270° |
| 2026-04-30 14:03 | 51.46745 | -0.47630 | 86 ft | 14 kts | 269° |
| 2026-04-30 14:03 | 51.46744 | -0.47783 | 86 ft | 13 kts | 270° |
| 2026-04-30 14:03 | 51.46744 | -0.47925 | 86 ft | 12 kts | 270° |
| 2026-04-30 14:04 | 51.46744 | -0.48069 | 86 ft | 14 kts | 270° |
| 2026-04-30 14:04 | 51.46725 | -0.48202 | 90 ft | 11 kts | 216° |
| 2026-04-30 14:04 | 51.46655 | -0.48213 | 86 ft | 9 kts | 180° |
| 2026-04-30 14:04 | 51.46601 | -0.48213 | 87 ft | 5 kts | 179° |
| 2026-04-30 14:05 | 51.46596 | -0.48213 | 87 ft | 0 kts | 179° |
| 2026-04-30 14:05 | 51.46593 | -0.48213 | 87 ft | 3 kts | 179° |
| 2026-04-30 14:06 | 51.46528 | -0.48212 | 88 ft | 11 kts | 179° |
| 2026-04-30 14:06 | 51.46480 | -0.48048 | 87 ft | 13 kts | 89° |
| 2026-04-30 14:07 | 51.46486 | -0.46564 | 90 ft | 122 kts | 89° |
| 2026-04-30 14:07 | 51.46492 | -0.44984 | 111 ft | 159 kts | 88° |
| 2026-04-30 14:07 | 51.46496 | -0.43167 | 573 ft | 165 kts | 89° |
| 2026-04-30 14:08 | 51.45737 | -0.39756 | 1464 ft | 187 kts | 132° |
| 2026-04-30 14:08 | 51.44883 | -0.38041 | 1601 ft | 210 kts | 122° |
| 2026-04-30 14:08 | 51.43490 | -0.33505 | 2617 ft | 238 kts | 103° |
| 2026-04-30 14:09 | 51.43141 | -0.30886 | 3380 ft | 242 kts | 103° |
| 2026-04-30 14:09 | 51.42768 | -0.28238 | 4164 ft | 245 kts | 105° |
| 2026-04-30 14:09 | 51.42019 | -0.22861 | 5672 ft | 250 kts | 106° |
| 2026-04-30 14:10 | 51.41640 | -0.20101 | 6353 ft | 256 kts | 106° |
| 2026-04-30 14:10 | 51.41253 | -0.17278 | 6987 ft | 263 kts | 106° |
| 2026-04-30 14:10 | 51.40861 | -0.14404 | 7677 ft | 265 kts | 105° |
| 2026-04-30 14:10 | 51.40465 | -0.11501 | 8382 ft | 268 kts | 106° |
| 2026-04-30 14:11 | 51.40064 | -0.08579 | 9087 ft | 270 kts | 105° |
| 2026-04-30 14:11 | 51.39658 | -0.05637 | 9803 ft | 272 kts | 105° |
| 2026-04-30 14:11 | 51.39246 | -0.02673 | 10435 ft | 277 kts | 105° |
| 2026-04-30 14:11 | 51.38808 | 0.00453 | 10566 ft | 298 kts | 105° |
| 2026-04-30 14:12 | 51.38335 | 0.03813 | 10679 ft | 319 kts | 105° |
| 2026-04-30 14:12 | 51.37836 | 0.07369 | 10955 ft | 333 kts | 104° |
| 2026-04-30 14:12 | 51.37324 | 0.11022 | 11480 ft | 339 kts | 104° |
| 2026-04-30 14:12 | 51.36805 | 0.14722 | 12038 ft | 343 kts | 104° |
| 2026-04-30 14:13 | 51.36282 | 0.18466 | 12628 ft | 347 kts | 104° |
| 2026-04-30 14:13 | 51.35754 | 0.22247 | 13225 ft | 350 kts | 104° |
| 2026-04-30 14:13 | 51.35215 | 0.26077 | 13810 ft | 354 kts | 105° |
| 2026-04-30 14:13 | 51.34669 | 0.29939 | 14354 ft | 358 kts | 105° |
| 2026-04-30 14:14 | 51.34118 | 0.33833 | 14871 ft | 361 kts | 105° |
| 2026-04-30 14:14 | 51.33556 | 0.37775 | 15394 ft | 364 kts | 105° |
| 2026-04-30 14:14 | 51.32987 | 0.41733 | 15946 ft | 367 kts | 105° |
| 2026-04-30 14:14 | 51.32413 | 0.45720 | 16489 ft | 370 kts | 105° |
| 2026-04-30 14:15 | 51.31834 | 0.49746 | 16963 ft | 373 kts | 105° |
| 2026-04-30 14:15 | 51.31249 | 0.53809 | 17462 ft | 377 kts | 105° |
| 2026-04-30 14:15 | 51.30656 | 0.57904 | 17970 ft | 379 kts | 105° |
| 2026-04-30 14:15 | 51.30041 | 0.61962 | 18433 ft | 382 kts | 107° |
| 2026-04-30 14:16 | 51.29339 | 0.66072 | 18854 ft | 385 kts | 108° |
| 2026-04-30 14:16 | 51.28583 | 0.70181 | 19281 ft | 387 kts | 109° |
| 2026-04-30 14:16 | 51.27800 | 0.74299 | 19738 ft | 388 kts | 109° |
| 2026-04-30 14:16 | 51.27013 | 0.78423 | 20182 ft | 390 kts | 109° |
| 2026-04-30 14:17 | 51.26226 | 0.82576 | 20631 ft | 391 kts | 108° |
| 2026-04-30 14:17 | 51.25446 | 0.86742 | 21081 ft | 393 kts | 108° |
| 2026-04-30 14:17 | 51.24668 | 0.90929 | 21524 ft | 394 kts | 108° |
| 2026-04-30 14:17 | 51.23893 | 0.95128 | 21963 ft | 395 kts | 108° |
| 2026-04-30 14:18 | 51.23115 | 0.99344 | 22379 ft | 397 kts | 108° |
| 2026-04-30 14:18 | 51.22330 | 1.03586 | 22808 ft | 399 kts | 108° |
| 2026-04-30 14:18 | 51.20745 | 1.12114 | 23658 ft | 403 kts | 108° |
| 2026-04-30 14:19 | 51.19128 | 1.20705 | 24367 ft | 406 kts | 108° |
| 2026-04-30 14:19 | 51.18311 | 1.25032 | 24698 ft | 408 kts | 108° |
| 2026-04-30 14:19 | 51.17493 | 1.29373 | 25024 ft | 410 kts | 108° |
| 2026-04-30 14:20 | 51.16677 | 1.33734 | 25346 ft | 412 kts | 107° |
| 2026-04-30 14:20 | 51.16145 | 1.38238 | 25661 ft | 416 kts | 97° |
| 2026-04-30 14:20 | 51.15716 | 1.47479 | 26281 ft | 421 kts | 96° |
| 2026-04-30 14:21 | 51.15500 | 1.52134 | 26583 ft | 422 kts | 96° |
| 2026-04-30 14:21 | 51.15275 | 1.56810 | 26882 ft | 424 kts | 96° |
| 2026-04-30 14:21 | 51.14804 | 1.66219 | 27469 ft | 428 kts | 97° |
| 2026-04-30 14:22 | 51.14567 | 1.70951 | 27746 ft | 430 kts | 97° |
| 2026-04-30 14:22 | 51.14085 | 1.80474 | 28301 ft | 433 kts | 97° |
| 2026-04-30 14:22 | 51.13843 | 1.85267 | 28571 ft | 435 kts | 97° |
| 2026-04-30 14:23 | 51.13343 | 1.94899 | 29114 ft | 438 kts | 96° |
| 2026-04-30 14:23 | 51.12844 | 2.04435 | 29225 ft | 423 kts | 96° |
| 2026-04-30 14:24 | 51.12105 | 2.18346 | 29228 ft | 419 kts | 97° |
| 2026-04-30 14:25 | 51.11090 | 2.36830 | 29234 ft | 418 kts | 97° |
| 2026-04-30 14:26 | 51.10595 | 2.45708 | 29234 ft | 386 kts | 97° |
| 2026-04-30 14:26 | 51.10365 | 2.49816 | 29238 ft | 371 kts | 97° |
| 2026-04-30 14:26 | 51.09903 | 2.57832 | 29238 ft | 357 kts | 97° |
| 2026-04-30 14:27 | 51.09625 | 2.61733 | 29241 ft | 353 kts | 102° |
| 2026-04-30 14:27 | 51.08150 | 2.69110 | 29245 ft | 350 kts | 117° |
| 2026-04-30 14:28 | 51.04754 | 2.79395 | 29243 ft | 350 kts | 118° |
| 2026-04-30 14:28 | 51.02490 | 2.86245 | 29243 ft | 351 kts | 118° |
| 2026-04-30 14:29 | 50.98299 | 2.98803 | 29243 ft | 351 kts | 118° |
| 2026-04-30 14:31 | 50.92173 | 3.17066 | 29237 ft | 351 kts | 118° |
| 2026-04-30 14:31 | 50.88716 | 3.27312 | 29235 ft | 351 kts | 118° |
| 2026-04-30 14:32 | 50.85250 | 3.37532 | 29233 ft | 351 kts | 118° |
| 2026-04-30 14:33 | 50.82940 | 3.44349 | 29233 ft | 352 kts | 118° |
| 2026-04-30 14:33 | 50.79458 | 3.54555 | 29237 ft | 351 kts | 118° |
| 2026-04-30 14:34 | 50.77130 | 3.61340 | 29248 ft | 351 kts | 118° |
| 2026-04-30 14:34 | 50.74819 | 3.68079 | 29246 ft | 351 kts | 118° |
| 2026-04-30 14:35 | 50.71320 | 3.78242 | 29239 ft | 351 kts | 117° |
| 2026-04-30 14:36 | 50.68985 | 3.85020 | 29238 ft | 352 kts | 118° |
| 2026-04-30 14:36 | 50.66636 | 3.91788 | 29239 ft | 352 kts | 118° |
| 2026-04-30 14:37 | 50.64247 | 3.98643 | 29260 ft | 366 kts | 118° |
| 2026-04-30 14:37 | 50.61739 | 4.05858 | 29251 ft | 385 kts | 117° |
| 2026-04-30 14:38 | 50.59299 | 4.13604 | 29253 ft | 404 kts | 114° |
| 2026-04-30 14:38 | 50.56929 | 4.21800 | 29259 ft | 417 kts | 114° |
| 2026-04-30 14:39 | 50.54502 | 4.30121 | 29248 ft | 424 kts | 114° |
| 2026-04-30 14:39 | 50.51942 | 4.38649 | 29248 ft | 438 kts | 115° |
| 2026-04-30 14:40 | 50.47977 | 4.51669 | 29247 ft | 441 kts | 115° |
| 2026-04-30 14:40 | 50.45335 | 4.60360 | 29247 ft | 441 kts | 115° |
| 2026-04-30 14:41 | 50.42689 | 4.69052 | 29259 ft | 442 kts | 115° |
| 2026-04-30 14:41 | 50.40028 | 4.77734 | 29261 ft | 442 kts | 115° |
| 2026-04-30 14:42 | 50.37367 | 4.86409 | 29261 ft | 442 kts | 115° |
| 2026-04-30 14:42 | 50.34695 | 4.95069 | 29261 ft | 442 kts | 115° |
| 2026-04-30 14:43 | 50.32014 | 5.03716 | 29266 ft | 442 kts | 115° |
| 2026-04-30 14:43 | 50.29331 | 5.12352 | 29274 ft | 441 kts | 115° |
| 2026-04-30 14:44 | 50.26645 | 5.20965 | 29278 ft | 440 kts | 115° |
| 2026-04-30 14:44 | 50.23958 | 5.29567 | 29280 ft | 440 kts | 115° |
| 2026-04-30 14:45 | 50.21273 | 5.38149 | 29283 ft | 440 kts | 115° |
| 2026-04-30 14:45 | 50.18544 | 5.46693 | 29276 ft | 440 kts | 116° |
| 2026-04-30 14:46 | 50.16103 | 5.53654 | 29276 ft | 440 kts | 118° |
| 2026-04-30 14:46 | 50.13021 | 5.61996 | 29269 ft | 441 kts | 118° |
| 2026-04-30 14:47 | 50.09950 | 5.70268 | 29272 ft | 441 kts | 118° |
| 2026-04-30 14:47 | 50.06891 | 5.78476 | 29272 ft | 441 kts | 118° |
| 2026-04-30 14:48 | 50.03802 | 5.86734 | 29284 ft | 441 kts | 118° |
| 2026-04-30 14:48 | 50.00712 | 5.94982 | 29295 ft | 441 kts | 118° |
| 2026-04-30 14:49 | 49.97614 | 6.03217 | 29296 ft | 441 kts | 118° |
| 2026-04-30 14:49 | 49.94512 | 6.11447 | 29295 ft | 441 kts | 118° |
| 2026-04-30 14:50 | 49.89855 | 6.23761 | 29294 ft | 441 kts | 118° |
| 2026-04-30 14:51 | 49.85178 | 6.36044 | 29290 ft | 441 kts | 118° |
| 2026-04-30 14:52 | 49.80484 | 6.48327 | 29275 ft | 443 kts | 118° |
| 2026-04-30 14:52 | 49.75758 | 6.60618 | 29268 ft | 443 kts | 118° |
| 2026-04-30 14:53 | 49.71022 | 6.72910 | 29268 ft | 444 kts | 118° |
| 2026-04-30 14:54 | 49.64674 | 6.89292 | 29279 ft | 445 kts | 118° |
| 2026-04-30 14:55 | 49.59875 | 7.01568 | 29279 ft | 446 kts | 118° |
| 2026-04-30 14:56 | 49.53459 | 7.17935 | 29307 ft | 447 kts | 118° |
| 2026-04-30 14:57 | 49.48629 | 7.30199 | 29324 ft | 447 kts | 118° |
| 2026-04-30 14:58 | 49.42163 | 7.46504 | 29310 ft | 446 kts | 119° |
| 2026-04-30 14:58 | 49.37304 | 7.58699 | 29303 ft | 446 kts | 119° |
| 2026-04-30 15:00 | 49.29180 | 7.78961 | 29298 ft | 446 kts | 118° |
| 2026-04-30 15:01 | 49.22658 | 7.95111 | 29295 ft | 446 kts | 119° |
| 2026-04-30 15:01 | 49.20825 | 7.98860 | 29291 ft | 446 kts | 131° |
| 2026-04-30 15:01 | 49.15586 | 8.03716 | 29304 ft | 443 kts | 155° |
| 2026-04-30 15:02 | 49.09800 | 8.06985 | 29297 ft | 443 kts | 156° |
| 2026-04-30 15:03 | 48.95369 | 8.15005 | 29280 ft | 442 kts | 156° |
| 2026-04-30 15:04 | 48.80941 | 8.23046 | 29266 ft | 442 kts | 156° |
| 2026-04-30 15:05 | 48.72276 | 8.27840 | 28944 ft | 441 kts | 156° |
| 2026-04-30 15:06 | 48.66544 | 8.30992 | 27718 ft | 436 kts | 156° |
| 2026-04-30 15:06 | 48.60875 | 8.34112 | 26536 ft | 431 kts | 156° |
| 2026-04-30 15:07 | 48.55281 | 8.37196 | 25408 ft | 426 kts | 156° |
| 2026-04-30 15:07 | 48.49745 | 8.40233 | 24319 ft | 421 kts | 156° |
| 2026-04-30 15:08 | 48.44272 | 8.43221 | 23143 ft | 416 kts | 156° |
| 2026-04-30 15:08 | 48.36228 | 8.47607 | 21335 ft | 401 kts | 156° |
| 2026-04-30 15:09 | 48.31064 | 8.50414 | 20186 ft | 389 kts | 157° |
| 2026-04-30 15:09 | 48.25991 | 8.53165 | 19090 ft | 386 kts | 156° |
| 2026-04-30 15:10 | 48.20949 | 8.55888 | 17935 ft | 385 kts | 159° |
| 2026-04-30 15:11 | 48.10265 | 8.56085 | 15590 ft | 391 kts | 189° |
| 2026-04-30 15:11 | 48.05058 | 8.54523 | 14470 ft | 372 kts | 189° |
| 2026-04-30 15:12 | 47.97692 | 8.53253 | 12711 ft | 339 kts | 161° |
| 2026-04-30 15:13 | 47.93772 | 8.56510 | 11556 ft | 310 kts | 142° |
| 2026-04-30 15:14 | 47.87165 | 8.63534 | 9458 ft | 285 kts | 142° |
| 2026-04-30 15:14 | 47.82434 | 8.68621 | 8258 ft | 279 kts | 141° |
| 2026-04-30 15:16 | 47.74125 | 8.73997 | 6972 ft | 279 kts | 201° |
| 2026-04-30 15:17 | 47.71770 | 8.63768 | 5450 ft | 287 kts | 277° |
| 2026-04-30 15:18 | 47.72744 | 8.50384 | 4054 ft | 250 kts | 278° |
| 2026-04-30 15:19 | 47.72821 | 8.41409 | 3544 ft | 292 kts | 250° |